Time;durP1;ratioP1;P1;durP2;ratioP2;P2;SDS_P1;SDS_P2;PMS_P1;PMS_P2;Temp;Humidity;BMP_temperature;BMP_pressure;BME280_temperature;BME280_humidity;BME280_pressure;Samples;Min_cycle;Max_cycle;Signal;HPM_P1;HPM_P2
2022/09/08 00:00:52;;;;;;;6.47;4.92;;;;;;;9.89;70.73;101629.55;1802460;79;21059;-85
2022/09/08 00:03:21;;;;;;;10.85;5.20;;;;;;;9.87;70.81;101633.46;1800038;79;21111;-85
2022/09/08 00:05:53;;;;;;;7.47;4.97;;;;;;;9.87;70.83;101628.59;1777139;79;22653;-84
2022/09/08 00:08:20;;;;;;;9.55;5.15;;;;;;;9.84;70.81;101617.97;1807015;79;21090;-84
2022/09/08 00:10:50;;;;;;;9.83;4.87;;;;;;;9.82;70.86;101615.27;1807089;79;21580;-87
2022/09/08 00:13:18;;;;;;;7.45;5.30;;;;;;;9.80;70.91;101613.39;1789603;79;21046;-87
2022/09/08 00:15:44;;;;;;;11.28;5.37;;;;;;;9.78;71.05;101607.17;1806675;79;21057;-87
2022/09/08 00:18:11;;;;;;;5.53;4.37;;;;;;;9.76;71.12;101601.88;1774595;79;21842;-87
2022/09/08 00:20:38;;;;;;;8.05;4.55;;;;;;;9.76;71.13;101601.88;1795707;79;21093;-87
2022/09/08 00:23:05;;;;;;;10.78;4.45;;;;;;;9.75;71.14;101604.01;1798085;78;21035;-88
2022/09/08 00:25:32;;;;;;;6.90;5.00;;;;;;;9.75;71.17;101609.69;1702759;82;21042;-88
2022/09/08 00:28:02;;;;;;;9.35;5.00;;;;;;;9.73;71.17;101613.56;1713997;82;21062;-89
2022/09/08 00:30:30;;;;;;;8.23;5.30;;;;;;;9.69;71.15;101623.48;1728130;82;21872;-84
2022/09/08 00:32:58;;;;;;;8.98;4.58;;;;;;;9.66;71.22;101621.59;1741891;82;21158;-84
2022/09/08 00:35:26;;;;;;;11.68;5.22;;;;;;;9.61;71.23;101615.27;1779576;79;21072;-84
2022/09/08 00:37:52;;;;;;;7.47;4.37;;;;;;;9.57;71.24;101612.00;1796416;79;21074;-85
2022/09/08 00:40:20;;;;;;;7.03;5.17;;;;;;;9.55;71.32;101611.03;1802696;79;21050;-85
2022/09/08 00:42:47;;;;;;;7.03;4.67;;;;;;;9.53;71.36;101617.57;1807825;79;21084;-84
2022/09/08 00:45:17;;;;;;;6.47;4.25;;;;;;;9.52;71.46;101619.70;1807808;79;21054;-84
2022/09/08 00:47:47;;;;;;;6.62;4.40;;;;;;;9.50;71.45;101616.11;1795785;79;21057;-84
2022/09/08 00:50:23;;;;;;;7.28;4.15;;;;;;;9.48;71.47;101623.45;1772817;79;21043;-83
2022/09/08 00:52:53;;;;;;;6.35;4.55;;;;;;;9.44;71.53;101621.50;1756494;79;21153;-84
2022/09/08 00:55:20;;;;;;;6.83;4.47;;;;;;;9.41;71.53;101622.70;1787470;79;21747;-84
2022/09/08 00:57:48;;;;;;;7.67;4.50;;;;;;;9.35;71.55;101625.96;1772788;80;21051;-84
2022/09/08 01:00:20;;;;;;;7.85;4.87;;;;;;;9.27;71.63;101620.77;1790799;79;21126;-84
2022/09/08 01:02:46;;;;;;;9.45;4.35;;;;;;;9.31;71.70;101634.12;1754299;80;21067;-84
2022/09/08 01:05:22;;;;;;;8.15;4.65;;;;;;;9.27;71.76;101632.20;1788002;80;21106;-84
2022/09/08 01:14:00;;;;;;;7.42;4.22;;;;;;;9.18;72.11;101620.35;1729076;82;21071;-83
2022/09/08 01:16:27;;;;;;;4.80;3.83;;;;;;;9.15;72.20;101619.39;1706063;82;21500;-83
2022/09/08 01:18:57;;;;;;;6.25;3.87;;;;;;;9.15;72.29;101622.44;1759765;79;21069;-83
2022/09/08 01:21:31;;;;;;;6.17;4.25;;;;;;;9.14;72.31;101620.23;1780905;79;21747;-84
2022/09/08 01:24:19;;;;;;;5.03;4.22;;;;;;;9.13;72.37;101621.05;1788435;80;21040;-83
2022/09/08 01:26:50;;;;;;;4.92;3.87;;;;;;;9.10;72.43;101617.00;1788188;80;21043;-83
2022/09/08 01:29:17;;;;;;;10.90;4.22;;;;;;;9.08;72.50;101618.62;1786579;79;21066;-83
2022/09/08 01:31:45;;;;;;;6.78;4.55;;;;;;;9.04;72.56;101610.13;1788283;80;21129;-87
2022/09/08 01:34:11;;;;;;;7.10;3.98;;;;;;;9.05;72.60;101613.68;1789099;79;21743;-87
2022/09/08 01:36:38;;;;;;;6.28;4.28;;;;;;;9.05;72.65;101618.93;1789381;79;21071;-88
2022/09/08 01:39:07;;;;;;;7.47;3.95;;;;;;;9.07;72.72;101620.78;1788300;79;21573;-84
2022/09/08 01:41:33;;;;;;;5.80;4.03;;;;;;;9.09;72.71;101619.13;1774068;79;21058;-83
2022/09/08 01:44:00;;;;;;;5.33;3.45;;;;;;;9.11;72.73;101606.95;1736264;82;21130;-84
2022/09/08 01:46:34;;;;;;;5.37;4.05;;;;;;;9.10;72.66;101612.13;1727321;82;21742;-85
2022/09/08 01:49:01;;;;;;;8.73;3.77;;;;;;;9.08;72.73;101609.43;1743480;80;21563;-88
2022/09/08 01:51:28;;;;;;;6.03;3.58;;;;;;;9.10;72.80;101610.82;1731131;82;21090;-85
2022/09/08 01:53:55;;;;;;;4.60;3.40;;;;;;;9.09;72.82;101600.73;1706329;83;21086;-85
2022/09/08 01:56:21;;;;;;;6.62;4.20;;;;;;;9.10;72.84;101603.86;1744315;80;21115;-86
2022/09/08 01:58:48;;;;;;;7.17;4.00;;;;;;;9.10;72.87;101598.61;1756653;81;21740;-85
2022/09/08 02:01:22;;;;;;;5.72;3.70;;;;;;;9.13;72.92;101596.09;1735243;82;21719;-89
2022/09/08 02:03:49;;;;;;;7.42;4.12;;;;;;;9.15;72.85;101594.86;1729823;82;21086;-88
2022/09/08 02:06:16;;;;;;;6.55;3.95;;;;;;;9.16;72.90;101588.80;1728803;82;21126;-88
2022/09/08 02:08:43;;;;;;;7.35;3.98;;;;;;;9.18;72.89;101595.39;1726757;82;21025;-87
2022/09/08 02:11:11;;;;;;;5.78;3.87;;;;;;;9.18;72.89;101592.38;1704771;83;21830;-87
2022/09/08 02:13:38;;;;;;;4.83;3.70;;;;;;;9.20;72.88;101593.34;1703715;83;21726;-88
2022/09/08 02:16:09;;;;;;;10.75;4.00;;;;;;;9.21;72.84;101591.61;1690566;84;21601;-88
2022/09/08 02:18:36;;;;;;;5.10;3.47;;;;;;;9.22;72.82;101586.42;1755777;81;21628;-88
2022/09/08 02:21:10;;;;;;;5.33;3.37;;;;;;;9.24;72.79;101587.81;1757034;80;21082;-88
2022/09/08 02:23:40;;;;;;;5.67;3.47;;;;;;;9.24;72.81;101588.70;1772277;80;21381;-87
2022/09/08 02:26:21;;;;;;;7.42;3.20;;;;;;;9.23;72.80;101589.94;1759059;80;21596;-88
2022/09/08 02:28:48;;;;;;;6.12;3.60;;;;;;;9.30;72.72;101603.41;1767945;80;21069;-85
2022/09/08 02:31:15;;;;;;;5.95;3.35;;;;;;;9.32;72.65;101596.48;1768038;80;21043;-84
2022/09/08 02:33:43;;;;;;;5.97;3.12;;;;;;;9.32;72.53;101607.00;1768960;79;21086;-84
2022/09/08 02:36:10;;;;;;;5.95;3.37;;;;;;;9.29;72.47;101609.52;1763930;80;21808;-85
2022/09/08 02:38:37;;;;;;;4.55;3.55;;;;;;;9.27;72.44;101611.56;1770655;80;21615;-84
2022/09/08 02:41:04;;;;;;;6.78;3.50;;;;;;;9.24;72.41;101608.41;1763241;81;21052;-84
2022/09/08 02:43:36;;;;;;;4.62;3.70;;;;;;;9.23;72.42;101600.45;1662008;85;81058;-83
2022/09/08 02:46:07;;;;;;;6.05;3.75;;;;;;;9.19;72.42;101604.66;1667605;85;21106;-84
2022/09/08 02:48:34;;;;;;;4.90;3.37;;;;;;;9.15;72.47;101601.42;1668461;84;21947;-84
2022/09/08 02:51:02;;;;;;;5.75;3.45;;;;;;;9.13;72.51;101596.52;1670804;84;21095;-84
2022/09/08 02:53:29;;;;;;;5.20;3.47;;;;;;;9.07;72.51;101595.84;1680703;84;21077;-84
2022/09/08 02:55:58;;;;;;;5.80;3.62;;;;;;;9.05;72.58;101596.61;1667474;84;21128;-83
2022/09/08 02:58:24;;;;;;;4.47;2.90;;;;;;;9.02;72.58;101596.46;1664661;83;21484;-83
2022/09/08 03:00:51;;;;;;;4.22;3.20;;;;;;;8.97;72.63;101590.09;1682780;84;21739;-83
2022/09/08 03:03:19;;;;;;;6.78;3.37;;;;;;;8.95;72.70;101588.70;1668931;84;21063;-83
2022/09/08 03:05:45;;;;;;;5.53;2.85;;;;;;;8.92;72.70;101590.80;1674624;83;22067;-83
2022/09/08 03:08:12;;;;;;;4.87;3.00;;;;;;;8.89;72.71;101591.06;1673958;84;21632;-83
2022/09/08 03:10:39;;;;;;;9.58;3.20;;;;;;;8.86;72.75;101589.21;1672497;84;22075;-83
2022/09/08 03:13:06;;;;;;;4.50;2.90;;;;;;;8.83;72.76;101589.06;1670998;85;21753;-84
2022/09/08 03:15:33;;;;;;;4.40;2.90;;;;;;;8.81;72.78;101588.09;1675432;84;21130;-84
2022/09/08 03:18:01;;;;;;;5.53;3.42;;;;;;;8.79;72.81;101592.38;1670826;84;21485;-84
2022/09/08 03:20:27;;;;;;;7.75;3.00;;;;;;;8.78;72.81;101588.36;1670925;84;21636;-84
2022/09/08 03:22:54;;;;;;;5.10;3.50;;;;;;;8.74;72.84;101591.27;1670692;84;21113;-83
2022/09/08 03:25:21;;;;;;;5.33;3.12;;;;;;;8.71;72.88;101592.03;1674359;84;22790;-84
2022/09/08 03:27:47;;;;;;;4.47;3.25;;;;;;;8.69;72.93;101593.69;1676848;83;21118;-84
2022/09/08 03:30:15;;;;;;;3.75;3.10;;;;;;;8.67;72.94;101591.80;1670952;84;21058;-84
2022/09/08 03:32:42;;;;;;;3.40;2.98;;;;;;;8.65;72.99;101592.14;1675843;84;21133;-86
2022/09/08 03:35:11;;;;;;;4.40;3.12;;;;;;;8.63;72.97;101593.38;1675631;84;21102;-84
2022/09/08 03:37:41;;;;;;;4.08;3.25;;;;;;;8.61;72.97;101589.80;1671174;84;21754;-85
2022/09/08 03:40:13;;;;;;;6.42;3.50;;;;;;;8.59;73.03;101585.31;1671097;84;21098;-84
2022/09/08 03:42:40;;;;;;;8.23;3.40;;;;;;;8.55;73.05;101587.78;1617660;86;21106;-84
2022/09/08 03:45:11;;;;;;;5.03;3.37;;;;;;;8.53;73.12;101582.87;1640751;85;21158;-84
2022/09/08 03:47:38;;;;;;;6.25;3.60;;;;;;;8.51;73.15;101577.98;1664511;84;21162;-84
2022/09/08 03:50:06;;;;;;;5.78;3.10;;;;;;;8.49;73.23;101577.01;1644851;85;21810;-84
2022/09/08 03:52:33;;;;;;;3.98;3.00;;;;;;;8.50;73.24;101579.21;1664826;84;21588;-84
2022/09/08 03:55:00;;;;;;;3.95;3.15;;;;;;;8.49;73.32;101582.26;1655487;84;21135;-86
2022/09/08 03:57:28;;;;;;;5.45;3.50;;;;;;;8.49;73.32;101580.05;1658749;84;21149;-85
2022/09/08 03:59:56;;;;;;;9.30;3.60;;;;;;;8.49;73.31;101569.14;1640829;85;21117;-85
2022/09/08 04:02:24;;;;;;;5.15;3.30;;;;;;;8.51;73.33;101577.09;1656038;85;21773;-85
2022/09/08 04:04:52;;;;;;;4.95;3.08;;;;;;;8.47;73.37;101568.59;1658700;85;21405;-83
2022/09/08 04:07:20;;;;;;;5.10;3.55;;;;;;;8.52;73.42;101575.85;1620740;85;21018;-84
2022/09/08 04:09:47;;;;;;;5.83;3.37;;;;;;;8.57;73.54;101569.48;1645996;85;21026;-83
2022/09/08 04:12:15;;;;;;;6.15;3.35;;;;;;;8.68;73.89;101569.99;1647243;85;21007;-83
2022/09/08 04:14:42;;;;;;;3.90;2.62;;;;;;;8.76;73.64;101564.66;1649514;84;21742;-84
2022/09/08 04:17:10;;;;;;;6.83;3.58;;;;;;;8.83;73.78;101568.06;1647829;84;21007;-84
2022/09/08 04:19:36;;;;;;;5.10;2.67;;;;;;;8.92;73.64;101559.70;1643225;85;21038;-83
2022/09/08 04:22:03;;;;;;;8.20;2.65;;;;;;;8.99;73.89;101561.78;1642866;85;21837;-83
2022/09/08 04:24:31;;;;;;;3.25;2.60;;;;;;;9.14;74.02;101565.08;1644861;85;21453;-83
2022/09/08 04:26:58;;;;;;;7.72;3.17;;;;;;;9.24;73.95;101560.23;1642827;85;21794;-84
2022/09/08 04:29:24;;;;;;;2.87;2.62;;;;;;;9.33;73.73;101560.62;1644666;85;20986;-84
2022/09/08 04:31:51;;;;;;;4.80;3.15;;;;;;;9.38;73.62;101555.55;1643661;85;21054;-89
2022/09/08 04:34:18;;;;;;;5.20;3.35;;;;;;;9.42;73.43;101557.08;1643851;85;21039;-88
2022/09/08 04:36:45;;;;;;;7.92;3.05;;;;;;;9.49;73.43;101560.42;1649008;85;21067;-88
2022/09/08 04:39:11;;;;;;;7.90;2.52;;;;;;;9.70;73.50;101565.70;1656292;84;21746;-89
2022/09/08 04:41:38;;;;;;;8.00;3.05;;;;;;;10.01;73.58;101559.48;1654987;85;21011;-88
2022/09/08 04:44:05;;;;;;;7.58;3.40;;;;;;;10.70;74.03;101561.77;1671797;84;21626;-86
2022/09/08 04:46:35;;;;;;;8.05;3.20;;;;;;;11.91;74.50;101555.01;1664735;83;21040;-85
2022/09/08 04:49:02;;;;;;;5.70;2.52;;;;;;;13.38;73.84;101547.92;1669715;85;21083;-86
2022/09/08 04:51:29;;;;;;;6.50;2.75;;;;;;;14.78;72.75;101545.00;1668269;83;21702;-87
2022/09/08 04:53:57;;;;;;;5.90;2.45;;;;;;;16.07;71.04;101542.02;1682184;84;21536;-84
2022/09/08 04:56:24;;;;;;;5.37;2.98;;;;;;;17.17;69.62;101542.11;1673685;83;21015;-84
2022/09/08 04:58:54;;;;;;;6.87;3.30;;;;;;;18.11;67.89;101537.61;1662239;85;21055;-84
2022/09/08 05:01:27;;;;;;;6.37;2.90;;;;;;;18.32;65.76;101535.52;1659140;85;21465;-83
2022/09/08 05:03:56;;;;;;;5.78;2.52;;;;;;;18.00;63.65;101533.12;1658577;85;21727;-84
2022/09/08 05:06:23;;;;;;;4.90;2.52;;;;;;;17.49;62.80;101534.02;1659764;85;21500;-85
2022/09/08 05:08:51;;;;;;;2.65;1.87;;;;;;;16.98;62.33;101528.60;1661853;85;21007;-84
2022/09/08 05:11:19;;;;;;;2.52;1.85;;;;;;;16.46;62.27;101534.58;1659793;85;21059;-84
2022/09/08 05:13:46;;;;;;;3.22;2.08;;;;;;;16.06;62.67;101535.35;1656092;84;21533;-84
2022/09/08 05:16:15;;;;;;;3.60;2.15;;;;;;;15.79;62.99;101535.39;1661947;85;21779;-83
2022/09/08 05:18:42;;;;;;;3.20;2.10;;;;;;;15.51;62.92;101536.22;1652525;85;21150;-84
2022/09/08 05:21:09;;;;;;;2.77;1.70;;;;;;;15.28;63.17;101541.13;1657513;85;21170;-86
2022/09/08 05:23:36;;;;;;;4.37;2.70;;;;;;;15.10;63.33;101550.94;1637940;85;21102;-86
2022/09/08 05:26:08;;;;;;;4.47;2.52;;;;;;;14.99;63.61;101551.16;1659626;85;21181;-87
2022/09/08 05:28:38;;;;;;;5.05;2.83;;;;;;;14.86;63.64;101553.11;1678180;85;21741;-86
2022/09/08 05:31:05;;;;;;;4.10;2.22;;;;;;;14.77;63.81;101554.72;1665087;85;21582;-86
2022/09/08 05:33:32;;;;;;;3.25;2.10;;;;;;;14.70;63.83;101556.77;1660325;85;21608;-86
2022/09/08 05:35:59;;;;;;;4.42;2.37;;;;;;;14.58;63.88;101557.42;1660978;85;21129;-86
2022/09/08 05:38:28;;;;;;;4.22;2.47;;;;;;;14.46;63.93;101560.19;1657108;85;21113;-86
2022/09/08 05:40:59;;;;;;;3.08;2.22;;;;;;;14.33;64.03;101560.34;1629571;86;20996;-86
2022/09/08 05:43:26;;;;;;;4.28;2.00;;;;;;;14.19;64.09;101560.04;1661605;84;20995;-86
2022/09/08 05:45:53;;;;;;;6.58;2.27;;;;;;;14.07;64.29;101559.30;1675401;85;21000;-86
2022/09/08 05:48:19;;;;;;;8.25;2.60;;;;;;;14.03;64.55;101562.74;1671832;83;21039;-86
2022/09/08 05:50:46;;;;;;;5.53;2.00;;;;;;;13.96;64.55;101563.45;1667412;83;21449;-86
2022/09/08 05:53:13;;;;;;;7.33;2.40;;;;;;;13.80;64.56;101567.05;1670168;83;21731;-86
2022/09/08 05:55:41;;;;;;;4.10;2.35;;;;;;;13.71;64.74;101571.22;1672330;83;21035;-86
2022/09/08 05:58:08;;;;;;;4.80;2.22;;;;;;;13.63;64.97;101575.00;1659742;85;21074;-86
2022/09/08 06:00:40;;;;;;;4.00;2.17;;;;;;;13.60;65.15;101570.94;1675401;84;20976;-86
2022/09/08 06:03:12;;;;;;;3.47;2.00;;;;;;;13.64;65.37;101570.16;1687104;83;26905;-86
2022/09/08 06:05:39;;;;;;;3.50;1.75;;;;;;;13.66;65.28;101563.15;1674455;84;21717;-86
2022/09/08 06:08:06;;;;;;;3.83;2.35;;;;;;;13.65;65.21;101570.64;1653519;84;21402;-86
2022/09/08 06:10:35;;;;;;;5.67;2.20;;;;;;;13.58;65.17;101574.86;1672940;84;21015;-88
2022/09/08 06:13:02;;;;;;;2.67;2.10;;;;;;;13.61;65.43;101578.03;1653625;84;21040;-86
2022/09/08 06:15:28;;;;;;;3.83;2.75;;;;;;;13.73;65.48;101579.65;1653051;84;21101;-86
2022/09/08 06:17:57;;;;;;;3.00;1.70;;;;;;;13.85;65.54;101574.20;1634275;85;22453;-88
2022/09/08 06:20:24;;;;;;;2.52;2.22;;;;;;;14.00;65.49;101580.78;1660032;84;21502;-86
2022/09/08 06:22:51;;;;;;;2.50;1.77;;;;;;;14.07;65.11;101585.77;1657861;84;21575;-86
2022/09/08 06:25:18;;;;;;;3.72;2.22;;;;;;;14.08;65.00;101576.98;1668232;84;21703;-86
2022/09/08 06:27:56;;;;;;;5.72;2.92;;;;;;;14.17;65.00;101583.83;1658983;83;21153;-86
2022/09/08 06:30:22;;;;;;;3.15;2.08;;;;;;;14.28;64.83;101577.88;1654154;84;22180;-86
2022/09/08 06:33:02;;;;;;;6.00;2.08;;;;;;;14.31;64.66;101569.57;1656619;84;21107;-87
2022/09/08 06:35:43;;;;;;;5.72;2.22;;;;;;;14.30;64.62;101559.86;1657166;84;21125;-86
2022/09/08 06:38:34;;;;;;;2.27;2.02;;;;;;;14.36;64.71;101560.42;1658088;84;21086;-85
2022/09/08 06:41:11;;;;;;;1.90;1.70;;;;;;;14.48;64.75;101558.03;1653862;84;22048;-88
2022/09/08 06:43:48;;;;;;;4.10;2.40;;;;;;;14.58;64.48;101557.42;1650735;85;21764;-87
2022/09/08 06:46:26;;;;;;;4.10;2.05;;;;;;;14.68;64.49;101560.27;1665538;84;21086;-86
2022/09/08 06:48:53;;;;;;;4.65;2.10;;;;;;;14.73;64.17;101558.17;1640660;84;21141;-87
2022/09/08 06:51:44;;;;;;;3.58;2.15;;;;;;;14.78;64.08;101564.88;1655204;84;21333;-87
2022/09/08 06:54:16;;;;;;;6.22;2.10;;;;;;;14.74;63.69;101563.92;1650032;85;21094;-86
2022/09/08 06:57:03;;;;;;;7.17;1.85;;;;;;;14.68;63.44;101567.78;1639770;85;21942;-86
2022/09/08 06:59:48;;;;;;;6.75;2.22;;;;;;;14.65;63.55;101570.34;1649277;85;21011;-86
2022/09/08 07:02:32;;;;;;;4.92;2.22;;;;;;;14.72;63.45;101567.41;1650454;84;21042;-86
2022/09/08 07:05:06;;;;;;;3.95;1.65;;;;;;;14.75;63.34;101569.70;1654123;85;21000;-86
2022/09/08 07:07:44;;;;;;;2.92;1.92;;;;;;;14.84;63.26;101573.39;1648003;84;22154;-86
2022/09/08 07:10:31;;;;;;;3.65;1.90;;;;;;;14.89;62.97;101572.63;1645347;85;22478;-86
2022/09/08 07:13:31;;;;;;;2.58;1.42;;;;;;;14.96;62.92;101576.30;1647957;85;21035;-88
2022/09/08 07:16:10;;;;;;;2.80;1.65;;;;;;;15.04;62.82;101580.44;1646263;85;21129;-86
2022/09/08 07:18:59;;;;;;;3.77;1.80;;;;;;;15.11;62.68;101576.61;1640163;85;21177;-86
2022/09/08 07:21:40;;;;;;;2.20;1.77;;;;;;;15.19;62.62;101574.09;1643157;85;21138;-86
2022/09/08 07:24:12;;;;;;;4.80;2.12;;;;;;;15.26;62.31;101571.11;1640464;85;21792;-87
2022/09/08 07:26:56;;;;;;;3.95;1.57;;;;;;;15.34;62.13;101569.52;1644474;85;21661;-87
2022/09/08 07:29:30;;;;;;;5.62;1.65;;;;;;;15.39;61.84;101573.56;1647257;85;21170;-88
2022/09/08 07:31:57;;;;;;;4.10;1.52;;;;;;;15.47;61.93;101582.58;1654181;85;21064;-86
2022/09/08 07:34:27;;;;;;;2.75;1.67;;;;;;;15.57;61.65;101581.86;1627102;86;21125;-82
2022/09/08 07:37:15;;;;;;;4.92;1.70;;;;;;;15.63;61.36;101585.94;1650238;84;22491;-85
2022/09/08 07:39:56;;;;;;;2.85;1.65;;;;;;;15.69;61.14;101577.19;1645813;85;21447;-83
2022/09/08 07:42:22;;;;;;;2.35;1.50;;;;;;;15.75;60.97;101573.38;1645647;84;21237;-83
2022/09/08 07:45:01;;;;;;;3.70;1.60;;;;;;;15.83;60.82;101571.73;1650208;84;21532;-83
2022/09/08 07:47:55;;;;;;;2.20;1.62;;;;;;;15.89;60.67;101572.27;1662096;84;21613;-82
2022/09/08 07:50:56;;;;;;;1.93;1.70;;;;;;;15.98;60.63;101560.46;1651518;84;21799;-83
2022/09/08 07:54:00;;;;;;;2.65;1.90;;;;;;;16.07;60.54;101561.05;1656168;84;21420;-83
2022/09/08 07:56:34;;;;;;;3.62;1.70;;;;;;;16.15;59.93;101561.17;1651961;85;21079;-82
2022/09/08 07:59:22;;;;;;;4.90;1.85;;;;;;;16.18;59.74;101557.20;1650273;84;21022;-82
2022/09/08 08:02:29;;;;;;;5.25;1.62;;;;;;;16.26;59.26;101563.55;1653070;84;21102;-82
2022/09/08 08:05:26;;;;;;;3.70;1.60;;;;;;;16.31;58.88;101563.16;1650324;85;21889;-84
2022/09/08 08:08:29;;;;;;;18.55;2.75;;;;;;;16.28;58.42;101545.86;1652790;84;21098;-84
2022/09/08 08:11:10;;;;;;;2.67;1.92;;;;;;;16.48;58.30;101566.97;1656728;84;21095;-83
2022/09/08 08:14:00;;;;;;;2.25;1.50;;;;;;;16.63;58.05;101564.03;1644521;85;21083;-83
2022/09/08 08:16:35;;;;;;;3.98;1.60;;;;;;;16.68;57.41;101564.99;1652994;84;21588;-83
2022/09/08 08:19:19;;;;;;;4.12;2.67;;;;;;;16.69;57.07;101568.13;1652780;84;21737;-85
2022/09/08 08:21:54;;;;;;;6.28;2.20;;;;;;;16.74;57.05;101566.39;1645958;85;21110;-83
2022/09/08 08:24:57;;;;;;;3.80;2.40;;;;;;;16.82;56.93;101567.44;1650135;85;22206;-83
2022/09/08 08:27:38;;;;;;;3.90;2.00;;;;;;;16.94;56.95;101565.35;1645217;85;21609;-83
2022/09/08 08:30:18;;;;;;;3.70;1.67;;;;;;;17.06;56.65;101564.18;1647995;84;21150;-83
2022/09/08 08:32:53;;;;;;;2.80;1.72;;;;;;;17.13;56.20;101570.44;1648394;85;21743;-83
2022/09/08 08:35:43;;;;;;;4.03;1.65;;;;;;;17.20;55.90;101557.66;1624765;85;21242;-83
2022/09/08 08:38:28;;;;;;;3.27;1.80;;;;;;;17.26;55.75;101555.51;1668111;84;21593;-83
2022/09/08 08:40:59;;;;;;;2.02;1.52;;;;;;;17.31;55.26;101552.47;1657924;84;21087;-83
2022/09/08 08:43:49;;;;;;;13.05;2.10;;;;;;;17.35;55.21;101543.62;1659424;84;21498;-83
2022/09/08 08:46:48;;;;;;;7.67;1.98;;;;;;;17.45;54.80;101540.16;1646217;85;21804;-83
2022/09/08 08:49:56;;;;;;;3.22;1.50;;;;;;;17.47;54.22;101527.80;1657257;84;21078;-83
2022/09/08 08:52:50;;;;;;;6.67;1.50;;;;;;;17.54;54.08;101531.38;1783096;78;21564;-83
2022/09/08 08:55:28;;;;;;;10.78;2.25;;;;;;;17.65;53.90;101529.70;1748634;80;21057;-83
2022/09/08 08:58:17;;;;;;;4.12;1.70;;;;;;;17.76;53.35;101524.92;1722031;81;21112;-83
2022/09/08 09:00:54;;;;;;;4.35;2.08;;;;;;;17.83;53.05;101513.41;1724585;81;21683;-83
2022/09/08 09:04:00;;;;;;;11.15;2.27;;;;;;;17.94;52.90;101511.74;1724515;81;21581;-83
2022/09/08 09:06:58;;;;;;;3.22;1.80;;;;;;;18.08;52.56;101511.85;1719797;81;21657;-83
2022/09/08 09:10:09;;;;;;;3.67;1.30;;;;;;;18.19;52.26;101508.81;1719113;81;21102;-83
2022/09/08 09:13:15;;;;;;;4.35;1.55;;;;;;;18.32;52.05;101511.52;1719109;82;21599;-84
2022/09/08 09:16:04;;;;;;;5.85;1.82;;;;;;;18.42;51.50;101504.92;1707810;82;22493;-84
2022/09/08 09:18:45;;;;;;;4.72;1.75;;;;;;;18.52;50.96;101498.30;1716771;82;21798;-83
2022/09/08 09:21:32;;;;;;;2.65;1.70;;;;;;;18.62;50.59;101502.35;1712322;82;21584;-84
2022/09/08 09:24:20;;;;;;;5.35;1.90;;;;;;;18.75;50.18;101507.30;1706112;81;21443;-84
2022/09/08 09:26:53;;;;;;;5.35;1.77;;;;;;;18.88;49.53;101502.01;1711836;81;21070;-84
2022/09/08 09:29:26;;;;;;;7.72;2.62;;;;;;;18.99;49.26;101497.14;1707430;82;21767;-84
2022/09/08 09:32:14;;;;;;;5.62;1.52;;;;;;;19.07;48.81;101487.84;1732937;80;21031;-84
2022/09/08 09:35:13;;;;;;;3.00;1.57;;;;;;;19.16;48.44;101482.94;1727227;80;21307;-83
2022/09/08 09:38:27;;;;;;;1.95;1.20;;;;;;;19.25;48.31;101486.96;1731300;80;21092;-83
2022/09/08 09:41:11;;;;;;;5.97;1.45;;;;;;;19.36;47.69;101485.19;1735349;81;21114;-82
2022/09/08 09:44:01;;;;;;;3.58;1.30;;;;;;;19.45;47.69;101472.75;1726551;82;21904;-83
2022/09/08 09:46:54;;;;;;;2.33;1.32;;;;;;;19.56;47.41;101475.85;1721934;81;21722;-83
2022/09/08 09:50:03;;;;;;;5.22;1.77;;;;;;;19.61;46.94;101468.73;1718201;80;21097;-83
2022/09/08 09:52:53;;;;;;;2.08;1.40;;;;;;;19.59;46.69;101468.27;1727348;80;21087;-82
2022/09/08 09:55:31;;;;;;;4.55;1.42;;;;;;;19.63;46.30;101472.71;1732139;80;21621;-84
2022/09/08 09:58:34;;;;;;;1.42;1.20;;;;;;;19.64;46.44;101476.30;1733406;81;22693;-83
2022/09/08 10:01:34;;;;;;;5.65;1.65;;;;;;;19.70;46.34;101476.28;1655561;85;21136;-85
2022/09/08 10:04:30;;;;;;;4.65;1.37;;;;;;;19.70;45.56;101465.59;1646479;85;21956;-85
2022/09/08 10:07:20;;;;;;;5.30;1.40;;;;;;;19.71;45.09;101464.27;1703518;81;21002;-85
2022/09/08 10:10:26;;;;;;;2.05;1.32;;;;;;;19.77;44.82;101464.28;1728416;81;21552;-84
2022/09/08 10:13:33;;;;;;;4.83;1.70;;;;;;;19.86;44.48;101462.47;1729432;81;21717;-85
2022/09/08 10:16:55;;;;;;;6.00;1.40;;;;;;;19.91;44.27;101459.36;1722061;81;21011;-83
2022/09/08 10:20:00;;;;;;;2.00;1.50;;;;;;;20.03;43.99;101462.44;1721859;81;21027;-83
2022/09/08 10:23:25;;;;;;;2.20;1.40;;;;;;;20.15;44.07;101461.95;1718716;80;21031;-86
2022/09/08 10:26:06;;;;;;;5.47;1.62;;;;;;;20.28;43.71;101460.59;1713630;81;21046;-84
2022/09/08 10:28:47;;;;;;;4.95;1.50;;;;;;;20.32;43.53;101455.20;1740188;81;21705;-84
2022/09/08 10:31:31;;;;;;;8.08;4.22;;;;;;;20.36;43.38;101456.09;1707632;81;21104;-84
2022/09/08 10:34:17;;;;;;;;;;;;;;;20.33;43.29;101456.12;1732844;81;21061;-83
2022/09/08 10:37:09;;;;;;;1.75;1.40;;;;;;;20.35;42.83;101448.98;1725673;82;20379;-84
2022/09/08 10:40:04;;;;;;;3.55;1.70;;;;;;;20.30;42.63;101446.77;1695133;81;21084;-83
2022/09/08 10:42:50;;;;;;;2.42;1.60;;;;;;;20.18;42.32;101449.05;1725151;81;21723;-84
2022/09/08 10:45:40;;;;;;;2.92;1.40;;;;;;;20.08;42.10;101446.83;1727499;81;20999;-84
2022/09/08 10:48:36;;;;;;;2.12;1.20;;;;;;;20.03;42.09;101440.63;1722016;79;21055;-84
2022/09/08 10:51:36;;;;;;;2.85;1.30;;;;;;;20.02;41.85;101437.50;1728818;80;21042;-84
2022/09/08 10:54:14;;;;;;;5.28;1.55;;;;;;;20.00;41.56;101432.16;1738136;79;21473;-84
2022/09/08 10:56:41;;;;;;;6.37;1.25;;;;;;;20.03;41.57;101434.38;1743093;80;21752;-84
2022/09/08 10:59:22;;;;;;;2.02;1.35;;;;;;;20.04;41.25;101436.17;1723618;82;21000;-84
2022/09/08 11:02:18;;;;;;;6.65;1.32;;;;;;;20.05;41.22;101438.84;1740557;80;21038;-84
2022/09/08 11:05:27;;;;;;;4.85;2.17;;;;;;;20.06;41.07;101431.70;1741637;80;21381;-84
2022/09/08 11:08:02;;;;;;;1.92;1.40;;;;;;;20.04;41.09;101428.15;1733762;81;21003;-85
2022/09/08 11:11:10;;;;;;;3.87;1.40;;;;;;;20.02;40.96;101436.63;1734962;80;21718;-84
2022/09/08 11:13:42;;;;;;;2.47;1.40;;;;;;;20.04;41.10;101429.48;1736597;80;20975;-84
2022/09/08 11:16:45;;;;;;;2.90;1.20;;;;;;;20.06;40.81;101427.69;1737883;81;20974;-84
2022/09/08 11:19:23;;;;;;;2.72;1.22;;;;;;;20.08;40.67;101426.78;1735328;81;20967;-84
2022/09/08 11:22:40;;;;;;;5.20;1.50;;;;;;;20.13;40.81;101425.45;1803221;77;20916;-84
2022/09/08 11:25:27;;;;;;;3.67;1.70;;;;;;;20.17;40.79;101424.08;1787335;78;22811;-84
2022/09/08 11:28:08;;;;;;;6.37;1.80;;;;;;;20.15;40.73;101427.66;1714494;80;21064;-83
2022/09/08 11:30:53;;;;;;;8.63;2.15;;;;;;;20.15;40.85;101419.19;1749595;80;21041;-83
2022/09/08 11:33:55;;;;;;;1.72;1.20;;;;;;;20.16;40.66;101412.08;1721326;81;21045;-85
2022/09/08 11:37:09;;;;;;;2.27;1.20;;;;;;;20.16;40.65;101412.08;1729530;80;22454;-83
2022/09/08 11:40:33;;;;;;;1.25;1.15;;;;;;;20.17;40.27;101405.83;1657315;81;21779;-82
2022/09/08 11:43:08;;;;;;;2.55;1.00;;;;;;;20.18;40.38;101407.62;1711728;81;21116;-85
2022/09/08 11:46:15;;;;;;;2.22;1.30;;;;;;;20.19;40.21;101409.38;1706082;82;21080;-82
2022/09/08 11:48:57;;;;;;;4.40;1.55;;;;;;;20.15;40.00;101401.81;1712522;81;21132;-85
2022/09/08 11:51:58;;;;;;;5.45;1.12;;;;;;;20.12;39.70;101404.52;1715862;81;21103;-83
2022/09/08 11:55:05;;;;;;;5.67;1.60;;;;;;;20.10;39.67;101391.61;1715288;81;21879;-83
2022/09/08 11:57:54;;;;;;;8.73;1.57;;;;;;;20.12;39.28;101391.58;1719011;81;21079;-83
2022/09/08 12:00:55;;;;;;;5.25;1.47;;;;;;;20.10;39.28;101384.94;1715895;82;21090;-83
2022/09/08 12:03:52;;;;;;;2.55;1.47;;;;;;;20.10;39.35;101382.27;1708188;83;21116;-84
2022/09/08 12:06:39;;;;;;;1.50;1.27;;;;;;;20.10;39.15;101382.69;1719101;81;21672;-84
2022/09/08 12:09:44;;;;;;;8.23;1.80;;;;;;;20.11;38.96;101382.69;1716754;81;21807;-83
2022/09/08 12:12:23;;;;;;;;;;;;;;;20.11;38.97;101376.00;1743949;80;21124;-84
2022/09/08 12:14:54;;;;;;;2.35;1.12;;;;;;;20.15;39.03;101378.22;1741166;80;20205;-84
2022/09/08 12:18:01;;;;;;;2.60;1.42;;;;;;;20.17;39.15;101381.77;1735520;81;21344;-84
2022/09/08 12:20:48;;;;;;;5.67;1.40;;;;;;;20.15;38.95;101376.42;1750645;80;21049;-84
2022/09/08 12:23:24;;;;;;;2.20;1.30;;;;;;;20.17;39.10;101376.42;1739113;80;21994;-83